createdAt,value
2023-03-19T00:01:07.179Z,100701.50
2023-03-19T00:03:52.649Z,100697.06
2023-03-19T00:06:38.009Z,100708.56
2023-03-19T00:09:22.993Z,100712.13
2023-03-19T00:12:09.359Z,100717.28
2023-03-19T00:14:54.571Z,100710.28
2023-03-19T00:17:41.416Z,100715.69
2023-03-19T00:20:27.240Z,100706.50
2023-03-19T00:23:12.351Z,100727.97
2023-03-19T00:25:57.520Z,100705.16
2023-03-19T00:28:42.527Z,100712.31
2023-03-19T00:31:29.031Z,100723.56
2023-03-19T00:34:14.655Z,100722.75
2023-03-19T00:36:59.564Z,100726.94
2023-03-19T00:39:44.865Z,100717.97
2023-03-19T00:42:30.534Z,100729.97
2023-03-19T00:45:16.526Z,100739.22
2023-03-19T00:48:01.448Z,100741.75
2023-03-19T00:50:46.309Z,100747.16
2023-03-19T00:53:31.612Z,100762.03
2023-03-19T00:56:18.364Z,100761.69
2023-03-19T00:59:03.761Z,100769.50
2023-03-19T01:01:48.886Z,100762.63
2023-03-19T01:04:34.230Z,100765.81
2023-03-19T01:07:19.396Z,100762.53
2023-03-19T01:10:04.881Z,100771.69
2023-03-19T01:12:50.984Z,100760.75
2023-03-19T01:15:38.143Z,100759.84
2023-03-19T01:18:23.024Z,100768.25
2023-03-19T01:21:08.429Z,100766.28
2023-03-19T01:23:53.558Z,100767.31
2023-03-19T01:26:38.621Z,100768.72
2023-03-19T01:29:23.847Z,100770.31
2023-03-19T01:32:08.846Z,100751.47
2023-03-19T01:34:54.173Z,100755.19
2023-03-19T01:37:40.167Z,100771.16
2023-03-19T01:40:25.353Z,100780.56
2023-03-19T01:43:15.425Z,100771.25
2023-03-19T01:46:05.097Z,100763.84
2023-03-19T01:48:53.881Z,100765.31
2023-03-19T01:51:43.404Z,100774.66
2023-03-19T01:54:30.549Z,100774.56
2023-03-19T01:57:17.255Z,100771.69
2023-03-19T02:00:05.441Z,100773.28
2023-03-19T02:02:56.668Z,100767.81
2023-03-19T02:05:45.536Z,100779.16
2023-03-19T02:08:32.193Z,100772.09
2023-03-19T02:11:18.923Z,100775.44
2023-03-19T02:14:04.087Z,100777.88
2023-03-19T02:16:49.353Z,100778.00
2023-03-19T02:19:48.450Z,100777.13
2023-03-19T02:22:35.494Z,100779.66
2023-03-19T02:25:46.556Z,100776.97
2023-03-19T02:28:33.281Z,100779.59
2023-03-19T02:31:19.086Z,100773.34
2023-03-19T02:34:27.566Z,100797.16
2023-03-19T02:37:18.784Z,100784.22
2023-03-19T02:40:08.947Z,100797.84
2023-03-19T02:42:54.287Z,100791.94
2023-03-19T02:45:39.815Z,100777.47
2023-03-19T02:48:25.378Z,100811.69
2023-03-19T02:51:10.456Z,100822.41
2023-03-19T02:53:55.861Z,100826.28
2023-03-19T02:56:41.313Z,100828.88
2023-03-19T02:59:27.018Z,100836.06
2023-03-19T03:02:12.542Z,100825.34
2023-03-19T03:04:57.880Z,100793.56
2023-03-19T03:07:44.902Z,100814.78
2023-03-19T03:10:31.022Z,100840.88
2023-03-19T03:13:16.364Z,100850.44
2023-03-19T03:16:01.914Z,100852.31
2023-03-19T03:18:47.142Z,100836.16
2023-03-19T03:21:35.277Z,100846.22
2023-03-19T03:24:21.082Z,100842.03
2023-03-19T03:27:06.649Z,100837.75
2023-03-19T03:29:52.195Z,100851.56
2023-03-19T03:32:38.887Z,100840.94
2023-03-19T03:35:24.099Z,100845.22
2023-03-19T03:38:09.804Z,100857.19
2023-03-19T03:40:54.938Z,100852.31
2023-03-19T03:43:41.046Z,100856.34
2023-03-19T03:46:26.232Z,100853.50
2023-03-19T03:49:11.393Z,100854.66
2023-03-19T03:51:57.342Z,100864.25
2023-03-19T03:54:42.619Z,100849.97
2023-03-19T03:57:27.888Z,100863.59
2023-03-19T04:00:14.279Z,100856.72
2023-03-19T04:02:59.683Z,100872.44
2023-03-19T04:05:45.855Z,100886.41
2023-03-19T04:08:30.822Z,100892.75
2023-03-19T04:11:15.937Z,100878.81
2023-03-19T04:14:03.270Z,100872.25
2023-03-19T04:16:48.421Z,100894.47
2023-03-19T04:19:33.592Z,100901.47
2023-03-19T04:22:18.927Z,100909.34
2023-03-19T04:25:05.077Z,100907.97
2023-03-19T04:27:49.980Z,100929.38
2023-03-19T04:30:35.684Z,100941.75
2023-03-19T04:33:21.113Z,100944.34
2023-03-19T04:36:07.001Z,100939.03
2023-03-19T04:38:52.655Z,100943.50
2023-03-19T04:41:37.691Z,100948.88
2023-03-19T04:44:23.710Z,100961.91
2023-03-19T04:47:10.282Z,100959.88
2023-03-19T04:49:55.188Z,100973.06
2023-03-19T04:52:40.390Z,100972.28
2023-03-19T04:55:25.741Z,100973.06
2023-03-19T04:58:11.344Z,100970.38
2023-03-19T05:00:56.324Z,100973.75
2023-03-19T05:03:41.584Z,100959.25
2023-03-19T05:06:27.300Z,100961.41
2023-03-19T05:09:12.329Z,100950.19
2023-03-19T05:11:57.459Z,100958.97
2023-03-19T05:14:42.709Z,100963.56
2023-03-19T05:17:27.795Z,100975.06
2023-03-19T05:20:13.045Z,100966.63
2023-03-19T05:22:59.504Z,100976.06
2023-03-19T05:25:44.650Z,100983.97
2023-03-19T05:28:30.025Z,100986.72
2023-03-19T05:31:15.309Z,100980.16
2023-03-19T05:34:00.813Z,100988.59
2023-03-19T05:36:46.507Z,101009.19
2023-03-19T05:39:31.687Z,101006.81
2023-03-19T05:42:16.957Z,101008.50
2023-03-19T05:45:02.358Z,101018.69
2023-03-19T05:47:50.903Z,101026.75
2023-03-19T05:50:36.037Z,101025.34
2023-03-19T05:53:23.037Z,101028.28
2023-03-19T05:56:08.407Z,101033.28
2023-03-19T05:58:53.564Z,101027.59
2023-03-19T06:01:38.805Z,101027.03
2023-03-19T06:04:23.785Z,101038.63
2023-03-19T06:07:09.119Z,101044.91
2023-03-19T06:09:54.392Z,101049.66
2023-03-19T06:12:39.305Z,101060.06
2023-03-19T06:15:24.306Z,101054.66
2023-03-19T06:18:09.220Z,101063.59
2023-03-19T06:20:54.567Z,101070.50
2023-03-19T06:23:39.709Z,101073.38
2023-03-19T06:26:25.743Z,101081.50
2023-03-19T06:29:11.442Z,101082.28
2023-03-19T06:31:58.163Z,101084.88
2023-03-19T06:34:43.529Z,101074.81
2023-03-19T06:37:28.577Z,101088.53
2023-03-19T06:40:13.887Z,101086.50
2023-03-19T06:42:59.333Z,101101.91
2023-03-19T06:45:44.563Z,101109.66
2023-03-19T06:48:29.574Z,101106.13
2023-03-19T06:51:14.633Z,101108.56
2023-03-19T06:53:59.656Z,101095.06
2023-03-19T06:56:44.923Z,101110.19
2023-03-19T06:59:30.184Z,101118.00
2023-03-19T07:02:15.572Z,101113.03
2023-03-19T07:05:00.702Z,101121.53
2023-03-19T07:07:46.013Z,101116.53
2023-03-19T07:10:31.363Z,101125.75
2023-03-19T07:13:16.516Z,101130.69
2023-03-19T07:16:01.649Z,101129.00
2023-03-19T07:18:46.720Z,101129.78
2023-03-19T07:21:32.087Z,101115.69
2023-03-19T07:24:17.243Z,101134.19
2023-03-19T07:27:03.208Z,101121.47
2023-03-19T07:29:48.742Z,101144.41
2023-03-19T07:32:33.790Z,101153.56
2023-03-19T07:35:19.228Z,101154.25
2023-03-19T07:38:04.621Z,101160.88
2023-03-19T07:41:01.559Z,101162.13
2023-03-19T07:43:47.691Z,101161.41
2023-03-19T07:46:33.017Z,101177.88
2023-03-19T07:49:18.132Z,101181.63
2023-03-19T07:52:03.522Z,101177.81
2023-03-19T07:54:50.123Z,101195.63
2023-03-19T07:57:35.155Z,101193.00
2023-03-19T08:00:20.906Z,101207.19
2023-03-19T08:03:06.001Z,101208.28
2023-03-19T08:05:52.497Z,101201.72
2023-03-19T08:08:38.011Z,101210.78
2023-03-19T08:11:23.240Z,101205.16
2023-03-19T08:14:08.418Z,101203.91
2023-03-19T08:16:53.455Z,101210.38
2023-03-19T08:19:38.690Z,101218.56
2023-03-19T08:22:23.740Z,101220.28
2023-03-19T08:25:10.579Z,101225.34
2023-03-19T08:27:56.278Z,101229.47
2023-03-19T08:30:41.456Z,101232.84
2023-03-19T08:33:26.709Z,101229.72
2023-03-19T08:36:13.927Z,101247.38
2023-03-19T08:38:59.131Z,101249.84
2023-03-19T08:41:44.577Z,101257.13
2023-03-19T08:44:29.857Z,101259.41
2023-03-19T08:47:15.824Z,101262.03
2023-03-19T08:50:01.447Z,101263.66
2023-03-19T08:52:46.807Z,101260.16
2023-03-19T08:55:32.138Z,101263.31
2023-03-19T08:58:17.065Z,101261.75
2023-03-19T09:01:07.803Z,101265.34
2023-03-19T09:03:53.050Z,101274.47
2023-03-19T09:06:38.265Z,101260.78
2023-03-19T09:09:24.861Z,101282.91
2023-03-19T09:12:13.011Z,101276.34
2023-03-19T09:14:57.944Z,101278.00
2023-03-19T09:17:43.192Z,101288.47
2023-03-19T09:20:28.224Z,101261.19
2023-03-19T09:23:13.447Z,101278.81
2023-03-19T09:25:58.822Z,101299.22
2023-03-19T09:28:44.096Z,101303.47
2023-03-19T09:31:29.851Z,101305.91
2023-03-19T09:34:15.336Z,101306.19
2023-03-19T09:37:00.726Z,101299.44
2023-03-19T09:39:45.947Z,101306.88
2023-03-19T09:43:00.889Z,101301.47
2023-03-19T09:45:47.801Z,101309.47
2023-03-19T09:48:46.976Z,101311.50
2023-03-19T09:51:44.811Z,101304.47
2023-03-19T09:54:39.507Z,101311.41
2023-03-19T09:57:24.787Z,101325.59
2023-03-19T10:00:24.551Z,101331.25
2023-03-19T10:03:31.778Z,101332.50
2023-03-19T10:06:34.199Z,101332.59
2023-03-19T10:09:28.494Z,101327.38
2023-03-19T10:12:22.927Z,101327.63
2023-03-19T10:15:25.402Z,101331.78
2023-03-19T10:18:18.519Z,101340.63
2023-03-19T10:21:20.031Z,101342.66
2023-03-19T10:24:21.781Z,101336.47
2023-03-19T10:27:28.596Z,101341.38
2023-03-19T10:30:17.040Z,101342.06
2023-03-19T10:33:17.693Z,101347.88
2023-03-19T10:36:10.833Z,101349.22
2023-03-19T10:38:56.726Z,101351.34
2023-03-19T10:42:03.907Z,101353.28
2023-03-19T10:45:03.443Z,101369.56
2023-03-19T10:47:48.825Z,101370.84
2023-03-19T10:50:53.979Z,101371.16
2023-03-19T10:53:39.726Z,101373.94
2023-03-19T10:56:30.151Z,101376.56
2023-03-19T10:59:23.894Z,101374.78
2023-03-19T11:02:31.151Z,101373.47
2023-03-19T11:05:27.706Z,101376.09
2023-03-19T11:08:34.831Z,101373.13
2023-03-19T11:11:34.965Z,101379.72
2023-03-19T11:14:24.737Z,101388.41
2023-03-19T11:17:37.559Z,101389.75
2023-03-19T11:20:28.171Z,101385.94
2023-03-19T11:23:17.098Z,101375.00
2023-03-19T11:26:02.852Z,101385.16
2023-03-19T11:28:52.081Z,101392.81
2023-03-19T11:31:41.685Z,101400.09
2023-03-19T11:34:43.801Z,101402.91
2023-03-19T11:37:52.572Z,101396.06
2023-03-19T11:40:44.632Z,101394.09
2023-03-19T11:43:54.546Z,101378.56
2023-03-19T11:46:48.169Z,101388.06
2023-03-19T11:49:50.684Z,101397.06
2023-03-19T11:52:47.934Z,101400.94
2023-03-19T11:55:45.513Z,101402.47
2023-03-19T11:58:41.801Z,101395.28
2023-03-19T12:01:51.968Z,101384.47
2023-03-19T12:04:46.123Z,101400.34
2023-03-19T12:07:53.015Z,101400.97
2023-03-19T12:10:53.544Z,101388.44
2023-03-19T12:13:59.853Z,101416.00
2023-03-19T12:16:56.782Z,101410.84
2023-03-19T12:20:13.166Z,101420.28
2023-03-19T12:23:06.436Z,101418.31
2023-03-19T12:26:05.042Z,101418.81
2023-03-19T12:29:08.511Z,101409.69
2023-03-19T12:32:05.344Z,101418.44
2023-03-19T12:35:04.664Z,101417.59
2023-03-19T12:38:00.109Z,101414.78
2023-03-19T12:40:49.545Z,101425.19
2023-03-19T12:44:08.872Z,101422.03
2023-03-19T12:47:04.484Z,101423.81
2023-03-19T12:50:04.909Z,101431.00
2023-03-19T12:52:53.513Z,101427.75
2023-03-19T12:55:49.744Z,101435.53
2023-03-19T12:58:58.801Z,101436.13
2023-03-19T13:01:52.087Z,101443.06
2023-03-19T13:04:44.615Z,101436.59
2023-03-19T13:07:53.948Z,101433.81
2023-03-19T13:10:40.102Z,101429.69
2023-03-19T13:13:33.274Z,101432.19
2023-03-19T13:16:40.559Z,101417.06
2023-03-19T13:19:56.532Z,101434.69
2023-03-19T13:22:45.215Z,101437.03
2023-03-19T13:25:39.193Z,101422.41
2023-03-19T13:28:28.168Z,101438.09
2023-03-19T13:31:20.748Z,101436.16
2023-03-19T13:34:17.762Z,101438.00
2023-03-19T13:37:09.037Z,101436.38
2023-03-19T13:39:54.097Z,101434.69
2023-03-19T13:42:43.734Z,101442.75
2023-03-19T13:45:31.289Z,101432.53
2023-03-19T13:48:29.026Z,101435.56
2023-03-19T13:51:20.168Z,101433.56
2023-03-19T13:54:23.146Z,101435.69
2023-03-19T13:57:18.373Z,101438.34
2023-03-19T14:00:22.409Z,101421.84
2023-03-19T14:03:19.240Z,101433.34
2023-03-19T14:06:04.466Z,101433.06
2023-03-19T14:08:51.816Z,101436.41
2023-03-19T14:11:37.768Z,101438.91
2023-03-19T14:14:24.580Z,101433.59
2023-03-19T14:17:24.822Z,101437.06
2023-03-19T14:20:13.197Z,101438.69
2023-03-19T14:23:17.861Z,101433.56
2023-03-19T14:26:15.811Z,101440.75
2023-03-19T14:29:07.424Z,101432.75
2023-03-19T14:31:55.769Z,101439.41
2023-03-19T14:34:42.799Z,101440.91
2023-03-19T14:37:34.433Z,101451.22
2023-03-19T14:40:37.916Z,101444.56
2023-03-19T14:43:23.086Z,101453.56
2023-03-19T14:46:17.546Z,101459.47
2023-03-19T14:49:12.097Z,101447.00
2023-03-19T14:52:20.714Z,101450.88
2023-03-19T14:55:10.410Z,101456.59
2023-03-19T14:57:56.734Z,101457.63
2023-03-19T15:00:52.165Z,101453.97
2023-03-19T15:03:37.957Z,101469.31
2023-03-19T15:06:23.783Z,101465.00
2023-03-19T15:09:26.877Z,101465.38
2023-03-19T15:12:11.970Z,101470.91
2023-03-19T15:15:19.842Z,101467.81
2023-03-19T15:18:08.567Z,101460.22
2023-03-19T15:20:54.803Z,101470.06
2023-03-19T15:23:41.153Z,101468.28
2023-03-19T15:26:46.026Z,101471.66
2023-03-19T15:29:37.578Z,101470.91
2023-03-19T15:33:09.169Z,101463.97
2023-03-19T15:35:58.707Z,101467.25
2023-03-19T15:39:07.004Z,101477.09
2023-03-19T15:41:52.604Z,101479.84
2023-03-19T15:44:42.028Z,101476.41
2023-03-19T15:47:29.952Z,101487.91
2023-03-19T15:50:23.505Z,101489.13
2023-03-19T15:53:10.932Z,101486.97
2023-03-19T15:55:56.266Z,101491.50
2023-03-19T15:58:44.365Z,101493.78
2023-03-19T16:01:31.738Z,101490.03
2023-03-19T16:04:22.182Z,101495.50
2023-03-19T16:07:21.440Z,101492.66
2023-03-19T16:10:25.499Z,101482.81
2023-03-19T16:13:25.663Z,101495.09
2023-03-19T16:16:11.259Z,101489.66
2023-03-19T16:18:57.140Z,101493.41
2023-03-19T16:21:43.190Z,101488.44
2023-03-19T16:24:32.687Z,101490.72
2023-03-19T16:27:22.127Z,101496.16
2023-03-19T16:30:21.739Z,101492.91
2023-03-19T16:33:07.046Z,101494.63
2023-03-19T16:35:52.594Z,101490.28
2023-03-19T16:38:43.088Z,101503.47
2023-03-19T16:41:33.819Z,101497.09
2023-03-19T16:44:19.327Z,101494.25
2023-03-19T16:47:09.499Z,101502.97
2023-03-19T16:49:54.339Z,101499.47
2023-03-19T16:52:40.420Z,101501.47
2023-03-19T16:55:27.063Z,101504.41
2023-03-19T16:58:16.338Z,101513.34
2023-03-19T17:01:01.737Z,101523.09
2023-03-19T17:03:47.128Z,101514.22
2023-03-19T17:06:34.448Z,101523.47
2023-03-19T17:09:19.346Z,101523.66
2023-03-19T17:12:06.162Z,101533.72
2023-03-19T17:14:52.309Z,101539.22
2023-03-19T17:17:37.674Z,101539.56
2023-03-19T17:20:24.571Z,101549.28
2023-03-19T17:23:10.800Z,101548.88
2023-03-19T17:25:56.362Z,101545.84
2023-03-19T17:28:41.680Z,101552.28
2023-03-19T17:31:30.654Z,101554.06
2023-03-19T17:34:27.609Z,101554.28
2023-03-19T17:37:13.748Z,101557.00
2023-03-19T17:39:58.858Z,101562.31
2023-03-19T17:42:44.222Z,101563.31
2023-03-19T17:45:29.889Z,101570.56
2023-03-19T17:48:33.066Z,101576.75
2023-03-19T17:51:18.645Z,101575.91
2023-03-19T17:54:03.954Z,101570.97
2023-03-19T17:56:49.179Z,101585.19
2023-03-19T17:59:34.365Z,101578.41
2023-03-19T18:02:27.087Z,101574.72
2023-03-19T18:05:20.103Z,101585.34
2023-03-19T18:08:05.393Z,101579.41
2023-03-19T18:10:50.815Z,101585.50
2023-03-19T18:13:36.389Z,101590.03
2023-03-19T18:16:21.633Z,101585.81
2023-03-19T18:19:15.739Z,101579.91
2023-03-19T18:22:00.919Z,101590.38
2023-03-19T18:24:46.156Z,101598.44
2023-03-19T18:27:31.126Z,101584.84
2023-03-19T18:30:17.680Z,101606.56
2023-03-19T18:33:07.219Z,101590.16
2023-03-19T18:35:53.729Z,101598.94
2023-03-19T18:38:39.145Z,101603.38
2023-03-19T18:41:25.657Z,101597.47
2023-03-19T18:44:12.180Z,101599.25
2023-03-19T18:46:58.005Z,101607.16
2023-03-19T18:49:43.355Z,101596.25
2023-03-19T18:52:28.314Z,101610.31
2023-03-19T18:55:14.069Z,101605.09
2023-03-19T18:58:00.512Z,101592.00
2023-03-19T19:00:45.657Z,101603.41
2023-03-19T19:03:31.681Z,101595.94
2023-03-19T19:06:44.268Z,101594.38
2023-03-19T19:09:32.114Z,101594.38
2023-03-19T19:12:18.670Z,101591.09
2023-03-19T19:15:05.129Z,101600.78
2023-03-19T19:17:50.566Z,101599.94
2023-03-19T19:20:35.695Z,101587.91
2023-03-19T19:23:21.620Z,101575.00
2023-03-19T19:26:06.884Z,101583.84
2023-03-19T19:28:52.970Z,101589.00
2023-03-19T19:31:38.075Z,101589.16
2023-03-19T19:34:23.085Z,101589.38
2023-03-19T19:37:14.390Z,101596.38
2023-03-19T19:39:59.491Z,101584.47
2023-03-19T19:42:45.734Z,101585.31
2023-03-19T19:45:37.716Z,101593.16
2023-03-19T19:48:27.003Z,101589.84
2023-03-19T19:51:18.137Z,101589.06
2023-03-19T19:54:03.804Z,101600.41
2023-03-19T19:56:49.845Z,101608.25
2023-03-19T19:59:35.103Z,101617.09
2023-03-19T20:02:24.298Z,101618.25
2023-03-19T20:05:15.350Z,101619.31
2023-03-19T20:08:01.580Z,101621.31
2023-03-19T20:10:47.706Z,101623.13
2023-03-19T20:13:34.223Z,101632.81
2023-03-19T20:16:19.751Z,101642.56
2023-03-19T20:19:04.853Z,101647.09
2023-03-19T20:21:49.663Z,101648.94
2023-03-19T20:24:34.497Z,101649.91
2023-03-19T20:27:21.555Z,101643.84
2023-03-19T20:30:08.193Z,101640.41
2023-03-19T20:32:54.640Z,101638.63
2023-03-19T20:35:39.866Z,101636.91
2023-03-19T20:38:27.134Z,101634.53
2023-03-19T20:41:22.817Z,101640.75
2023-03-19T20:44:07.853Z,101640.75
2023-03-19T20:46:52.702Z,101627.75
2023-03-19T20:49:37.705Z,101608.63
2023-03-19T20:52:22.590Z,101610.38
2023-03-19T20:55:08.158Z,101608.66
2023-03-19T20:57:53.576Z,101611.44
2023-03-19T21:00:38.719Z,101607.13
2023-03-19T21:03:25.453Z,101611.44
2023-03-19T21:06:21.049Z,101615.88
2023-03-19T21:09:05.883Z,101604.56
2023-03-19T21:11:52.181Z,101609.06
2023-03-19T21:14:37.495Z,101620.50
2023-03-19T21:17:22.718Z,101619.88
2023-03-19T21:20:08.059Z,101625.16
2023-03-19T21:22:58.855Z,101629.53
2023-03-19T21:25:45.003Z,101633.06
2023-03-19T21:28:34.238Z,101621.84
2023-03-19T21:31:20.632Z,101618.25
2023-03-19T21:34:05.881Z,101634.69
2023-03-19T21:36:51.044Z,101629.63
2023-03-19T21:39:36.493Z,101631.50
2023-03-19T21:42:22.620Z,101631.66
2023-03-19T21:45:14.572Z,101638.59
2023-03-19T21:48:02.410Z,101630.94
2023-03-19T21:50:50.096Z,101637.00
2023-03-19T21:53:35.050Z,101636.16
2023-03-19T21:56:22.051Z,101651.88
2023-03-19T21:59:18.015Z,101658.94
2023-03-19T22:02:04.374Z,101638.84
2023-03-19T22:04:49.455Z,101638.97
2023-03-19T22:07:34.194Z,101640.78
2023-03-19T22:10:20.152Z,101646.09
2023-03-19T22:13:05.129Z,101646.28
2023-03-19T22:15:51.486Z,101633.53
2023-03-19T22:18:36.508Z,101634.56
2023-03-19T22:21:22.560Z,101644.00
2023-03-19T22:24:08.010Z,101642.25
2023-03-19T22:26:56.485Z,101641.50
2023-03-19T22:29:41.761Z,101632.03
2023-03-19T22:32:27.030Z,101630.41
2023-03-19T22:35:14.824Z,101629.75
2023-03-19T22:37:59.779Z,101634.19
2023-03-19T22:40:45.780Z,101626.34
2023-03-19T22:43:33.285Z,101649.97
2023-03-19T22:46:18.805Z,101653.56
2023-03-19T22:49:06.506Z,101640.44
2023-03-19T22:51:51.335Z,101635.47
2023-03-19T22:54:36.499Z,101646.06
2023-03-19T22:57:21.461Z,101635.63
2023-03-19T23:00:12.121Z,101635.66
2023-03-19T23:03:01.075Z,101640.88
2023-03-19T23:05:48.312Z,101649.59
2023-03-19T23:08:33.538Z,101654.94
2023-03-19T23:11:18.777Z,101648.72
2023-03-19T23:14:03.813Z,101640.84
2023-03-19T23:16:49.035Z,101646.09
2023-03-19T23:19:35.274Z,101630.41
2023-03-19T23:22:20.860Z,101631.19
2023-03-19T23:25:06.022Z,101632.09
2023-03-19T23:27:51.158Z,101632.09
2023-03-19T23:30:41.297Z,101636.47
2023-03-19T23:33:26.972Z,101636.41
2023-03-19T23:36:12.314Z,101636.41
2023-03-19T23:38:57.599Z,101630.25
2023-03-19T23:41:48.281Z,101644.16
2023-03-19T23:44:33.600Z,101638.03
2023-03-19T23:47:18.648Z,101645.72
2023-03-19T23:50:04.045Z,101650.88
2023-03-19T23:52:50.305Z,101632.81
2023-03-19T23:55:35.612Z,101634.63
2023-03-19T23:58:21.424Z,101637.31
